sensor_id;sensor_type;location;lat;lon;timestamp;temperature;humidity
50067;DHT22;35952;52.524;13.340;2022-08-07T00:00:52;17.90;67.10
50067;DHT22;35952;52.524;13.340;2022-08-07T00:03:18;17.90;66.60
50067;DHT22;35952;52.524;13.340;2022-08-07T00:05:43;17.80;65.50
50067;DHT22;35952;52.524;13.340;2022-08-07T00:08:09;17.90;66.00
50067;DHT22;35952;52.524;13.340;2022-08-07T00:10:35;17.90;66.30
50067;DHT22;35952;52.524;13.340;2022-08-07T00:13:02;17.80;66.40
50067;DHT22;35952;52.524;13.340;2022-08-07T00:15:29;17.80;65.50
50067;DHT22;35952;52.524;13.340;2022-08-07T00:17:55;17.70;65.90
50067;DHT22;35952;52.524;13.340;2022-08-07T00:20:21;17.70;67.20
50067;DHT22;35952;52.524;13.340;2022-08-07T00:22:46;17.70;67.60
50067;DHT22;35952;52.524;13.340;2022-08-07T00:25:12;17.70;67.30
50067;DHT22;35952;52.524;13.340;2022-08-07T00:27:38;17.70;69.20
50067;DHT22;35952;52.524;13.340;2022-08-07T00:30:04;17.90;67.30
50067;DHT22;35952;52.524;13.340;2022-08-07T00:32:29;18.00;67.10
50067;DHT22;35952;52.524;13.340;2022-08-07T00:34:55;17.90;67.60
50067;DHT22;35952;52.524;13.340;2022-08-07T00:37:20;18.00;67.20
50067;DHT22;35952;52.524;13.340;2022-08-07T00:39:46;17.80;67.00
50067;DHT22;35952;52.524;13.340;2022-08-07T00:42:12;17.80;66.60
50067;DHT22;35952;52.524;13.340;2022-08-07T00:44:37;17.70;66.60
50067;DHT22;35952;52.524;13.340;2022-08-07T00:47:04;17.70;67.00
50067;DHT22;35952;52.524;13.340;2022-08-07T00:49:30;17.70;66.50
50067;DHT22;35952;52.524;13.340;2022-08-07T00:51:56;17.60;67.50
50067;DHT22;35952;52.524;13.340;2022-08-07T00:54:22;17.50;67.70
50067;DHT22;35952;52.524;13.340;2022-08-07T00:56:48;17.50;67.60
50067;DHT22;35952;52.524;13.340;2022-08-07T00:59:14;17.50;67.20
50067;DHT22;35952;52.524;13.340;2022-08-07T01:01:40;17.50;67.70
50067;DHT22;35952;52.524;13.340;2022-08-07T01:04:06;17.40;67.10
50067;DHT22;35952;52.524;13.340;2022-08-07T01:06:32;17.40;67.70
50067;DHT22;35952;52.524;13.340;2022-08-07T01:08:59;17.40;68.10
50067;DHT22;35952;52.524;13.340;2022-08-07T01:11:25;17.40;67.90
50067;DHT22;35952;52.524;13.340;2022-08-07T01:13:50;17.30;68.80
50067;DHT22;35952;52.524;13.340;2022-08-07T01:16:16;17.40;68.30
50067;DHT22;35952;52.524;13.340;2022-08-07T01:18:41;17.30;68.30
50067;DHT22;35952;52.524;13.340;2022-08-07T01:21:16;17.20;69.70
50067;DHT22;35952;52.524;13.340;2022-08-07T01:23:43;17.20;69.70
50067;DHT22;35952;52.524;13.340;2022-08-07T01:26:11;17.40;68.60
50067;DHT22;35952;52.524;13.340;2022-08-07T01:28:38;17.50;67.90
50067;DHT22;35952;52.524;13.340;2022-08-07T01:31:04;17.30;69.10
50067;DHT22;35952;52.524;13.340;2022-08-07T01:33:30;17.40;68.90
50067;DHT22;35952;52.524;13.340;2022-08-07T01:35:56;17.30;69.50
50067;DHT22;35952;52.524;13.340;2022-08-07T01:38:24;17.20;70.70
50067;DHT22;35952;52.524;13.340;2022-08-07T01:40:53;17.10;71.00
50067;DHT22;35952;52.524;13.340;2022-08-07T01:43:19;17.20;72.40
50067;DHT22;35952;52.524;13.340;2022-08-07T01:45:45;17.10;71.00
50067;DHT22;35952;52.524;13.340;2022-08-07T01:48:10;17.30;70.40
50067;DHT22;35952;52.524;13.340;2022-08-07T01:50:37;17.40;69.60
50067;DHT22;35952;52.524;13.340;2022-08-07T01:53:05;17.10;70.10
50067;DHT22;35952;52.524;13.340;2022-08-07T01:55:36;17.00;71.40
50067;DHT22;35952;52.524;13.340;2022-08-07T01:58:07;16.90;71.10
50067;DHT22;35952;52.524;13.340;2022-08-07T02:00:34;16.90;71.70
50067;DHT22;35952;52.524;13.340;2022-08-07T02:03:06;17.10;71.80
50067;DHT22;35952;52.524;13.340;2022-08-07T02:05:38;17.10;71.30
50067;DHT22;35952;52.524;13.340;2022-08-07T02:08:09;17.10;71.70
50067;DHT22;35952;52.524;13.340;2022-08-07T02:10:37;17.00;72.30
50067;DHT22;35952;52.524;13.340;2022-08-07T02:13:03;16.90;73.70
50067;DHT22;35952;52.524;13.340;2022-08-07T02:15:30;16.80;73.40
50067;DHT22;35952;52.524;13.340;2022-08-07T02:17:57;16.70;73.80
50067;DHT22;35952;52.524;13.340;2022-08-07T02:20:23;16.70;74.20
50067;DHT22;35952;52.524;13.340;2022-08-07T02:22:52;16.60;74.60
50067;DHT22;35952;52.524;13.340;2022-08-07T02:25:24;16.70;74.90
50067;DHT22;35952;52.524;13.340;2022-08-07T02:27:51;16.60;74.20
50067;DHT22;35952;52.524;13.340;2022-08-07T02:30:17;16.50;74.60
50067;DHT22;35952;52.524;13.340;2022-08-07T02:32:43;16.50;75.00
50067;DHT22;35952;52.524;13.340;2022-08-07T02:35:10;16.50;74.70
50067;DHT22;35952;52.524;13.340;2022-08-07T02:37:39;16.50;74.50
50067;DHT22;35952;52.524;13.340;2022-08-07T02:40:07;16.50;74.90
50067;DHT22;35952;52.524;13.340;2022-08-07T02:42:33;16.40;74.70
50067;DHT22;35952;52.524;13.340;2022-08-07T02:45:02;16.40;74.10
50067;DHT22;35952;52.524;13.340;2022-08-07T02:47:28;16.40;74.50
50067;DHT22;35952;52.524;13.340;2022-08-07T02:49:54;16.40;74.20
50067;DHT22;35952;52.524;13.340;2022-08-07T02:52:25;16.30;74.20
50067;DHT22;35952;52.524;13.340;2022-08-07T02:54:52;16.20;74.70
50067;DHT22;35952;52.524;13.340;2022-08-07T02:57:19;16.30;76.20
50067;DHT22;35952;52.524;13.340;2022-08-07T02:59:49;16.30;75.20
50067;DHT22;35952;52.524;13.340;2022-08-07T03:02:15;16.30;74.80
50067;DHT22;35952;52.524;13.340;2022-08-07T03:04:43;16.30;75.00
50067;DHT22;35952;52.524;13.340;2022-08-07T03:07:09;16.20;74.90
50067;DHT22;35952;52.524;13.340;2022-08-07T03:09:36;16.10;75.20
50067;DHT22;35952;52.524;13.340;2022-08-07T03:12:03;16.10;75.50
50067;DHT22;35952;52.524;13.340;2022-08-07T03:14:30;16.10;75.90
50067;DHT22;35952;52.524;13.340;2022-08-07T03:16:57;16.10;75.90
50067;DHT22;35952;52.524;13.340;2022-08-07T03:19:24;16.00;76.30
50067;DHT22;35952;52.524;13.340;2022-08-07T03:21:50;16.10;76.10
50067;DHT22;35952;52.524;13.340;2022-08-07T03:24:17;16.10;75.90
50067;DHT22;35952;52.524;13.340;2022-08-07T03:26:44;16.10;75.70
50067;DHT22;35952;52.524;13.340;2022-08-07T03:29:11;16.10;76.10
50067;DHT22;35952;52.524;13.340;2022-08-07T03:31:38;16.00;76.10
50067;DHT22;35952;52.524;13.340;2022-08-07T03:34:06;16.10;77.00
50067;DHT22;35952;52.524;13.340;2022-08-07T03:36:34;16.10;77.10
50067;DHT22;35952;52.524;13.340;2022-08-07T03:39:07;16.00;76.20
50067;DHT22;35952;52.524;13.340;2022-08-07T03:41:34;16.00;76.60
50067;DHT22;35952;52.524;13.340;2022-08-07T03:44:01;15.90;76.80
50067;DHT22;35952;52.524;13.340;2022-08-07T03:46:27;15.90;76.70
50067;DHT22;35952;52.524;13.340;2022-08-07T03:48:53;15.90;77.20
50067;DHT22;35952;52.524;13.340;2022-08-07T03:51:20;15.90;77.10
50067;DHT22;35952;52.524;13.340;2022-08-07T03:53:46;15.80;77.30
50067;DHT22;35952;52.524;13.340;2022-08-07T03:56:17;15.80;77.50
50067;DHT22;35952;52.524;13.340;2022-08-07T03:58:43;16.00;78.10
50067;DHT22;35952;52.524;13.340;2022-08-07T04:01:10;16.10;78.40
50067;DHT22;35952;52.524;13.340;2022-08-07T04:03:36;16.10;78.30
50067;DHT22;35952;52.524;13.340;2022-08-07T04:06:02;16.10;77.80
50067;DHT22;35952;52.524;13.340;2022-08-07T04:08:28;16.10;77.80
50067;DHT22;35952;52.524;13.340;2022-08-07T04:10:54;16.00;77.50
50067;DHT22;35952;52.524;13.340;2022-08-07T04:13:22;16.00;77.80
50067;DHT22;35952;52.524;13.340;2022-08-07T04:15:48;15.90;77.50
50067;DHT22;35952;52.524;13.340;2022-08-07T04:18:14;16.00;76.90
50067;DHT22;35952;52.524;13.340;2022-08-07T04:20:40;16.00;77.30
50067;DHT22;35952;52.524;13.340;2022-08-07T04:23:06;16.00;76.90
50067;DHT22;35952;52.524;13.340;2022-08-07T04:25:35;16.10;77.20
50067;DHT22;35952;52.524;13.340;2022-08-07T04:28:04;16.10;77.00
50067;DHT22;35952;52.524;13.340;2022-08-07T04:30:31;16.10;76.70
50067;DHT22;35952;52.524;13.340;2022-08-07T04:32:57;16.20;77.00
50067;DHT22;35952;52.524;13.340;2022-08-07T04:35:23;16.40;76.50
50067;DHT22;35952;52.524;13.340;2022-08-07T04:37:48;16.40;76.00
50067;DHT22;35952;52.524;13.340;2022-08-07T04:40:14;16.40;75.90
50067;DHT22;35952;52.524;13.340;2022-08-07T04:42:40;16.50;76.00
50067;DHT22;35952;52.524;13.340;2022-08-07T04:45:06;16.70;75.50
50067;DHT22;35952;52.524;13.340;2022-08-07T04:47:46;16.90;76.30
50067;DHT22;35952;52.524;13.340;2022-08-07T04:50:18;17.20;74.90
50067;DHT22;35952;52.524;13.340;2022-08-07T04:52:50;17.40;74.00
50067;DHT22;35952;52.524;13.340;2022-08-07T04:55:22;17.50;74.00
50067;DHT22;35952;52.524;13.340;2022-08-07T04:57:57;17.70;74.20
50067;DHT22;35952;52.524;13.340;2022-08-07T05:03:22;17.90;72.80
50067;DHT22;35952;52.524;13.340;2022-08-07T05:05:59;17.90;71.20
50067;DHT22;35952;52.524;13.340;2022-08-07T05:11:18;18.30;71.00
50067;DHT22;35952;52.524;13.340;2022-08-07T05:13:58;18.30;70.50
50067;DHT22;35952;52.524;13.340;2022-08-07T05:16:28;18.30;70.40
50067;DHT22;35952;52.524;13.340;2022-08-07T05:18:59;18.30;69.10
50067;DHT22;35952;52.524;13.340;2022-08-07T05:21:29;18.60;70.60
50067;DHT22;35952;52.524;13.340;2022-08-07T05:24:05;18.80;70.30
50067;DHT22;35952;52.524;13.340;2022-08-07T05:26:34;19.60;66.60
50067;DHT22;35952;52.524;13.340;2022-08-07T05:29:02;20.90;64.10
50067;DHT22;35952;52.524;13.340;2022-08-07T05:31:32;22.50;60.10
50067;DHT22;35952;52.524;13.340;2022-08-07T05:34:00;23.70;57.10
50067;DHT22;35952;52.524;13.340;2022-08-07T05:36:27;25.00;54.50
50067;DHT22;35952;52.524;13.340;2022-08-07T05:38:54;25.00;52.30
50067;DHT22;35952;52.524;13.340;2022-08-07T05:41:22;25.90;52.00
50067;DHT22;35952;52.524;13.340;2022-08-07T05:43:51;26.00;49.50
50067;DHT22;35952;52.524;13.340;2022-08-07T05:46:18;25.20;50.60
50067;DHT22;35952;52.524;13.340;2022-08-07T05:48:45;25.20;50.70
50067;DHT22;35952;52.524;13.340;2022-08-07T05:51:11;26.30;48.90
50067;DHT22;35952;52.524;13.340;2022-08-07T05:53:38;26.80;49.30
50067;DHT22;35952;52.524;13.340;2022-08-07T05:56:04;27.90;47.30
50067;DHT22;35952;52.524;13.340;2022-08-07T05:58:31;27.80;45.80
50067;DHT22;35952;52.524;13.340;2022-08-07T06:00:58;29.20;44.40
50067;DHT22;35952;52.524;13.340;2022-08-07T06:03:25;29.00;42.40
50067;DHT22;35952;52.524;13.340;2022-08-07T06:05:52;27.30;44.70
50067;DHT22;35952;52.524;13.340;2022-08-07T06:08:18;28.20;44.40
50067;DHT22;35952;52.524;13.340;2022-08-07T06:10:45;26.80;43.90
50067;DHT22;35952;52.524;13.340;2022-08-07T06:13:11;26.30;45.70
50067;DHT22;35952;52.524;13.340;2022-08-07T06:15:39;26.50;45.60
50067;DHT22;35952;52.524;13.340;2022-08-07T06:18:05;26.50;46.30
50067;DHT22;35952;52.524;13.340;2022-08-07T06:20:34;27.70;45.40
50067;DHT22;35952;52.524;13.340;2022-08-07T06:23:02;29.10;43.90
50067;DHT22;35952;52.524;13.340;2022-08-07T06:25:28;30.60;42.60
50067;DHT22;35952;52.524;13.340;2022-08-07T06:28:08;29.80;39.50
50067;DHT22;35952;52.524;13.340;2022-08-07T06:30:35;30.30;41.40
50067;DHT22;35952;52.524;13.340;2022-08-07T06:33:01;30.70;39.50
50067;DHT22;35952;52.524;13.340;2022-08-07T06:35:28;30.20;40.90
50067;DHT22;35952;52.524;13.340;2022-08-07T06:37:53;29.20;39.10
50067;DHT22;35952;52.524;13.340;2022-08-07T06:40:20;27.80;42.50
50067;DHT22;35952;52.524;13.340;2022-08-07T06:42:47;27.50;42.40
50067;DHT22;35952;52.524;13.340;2022-08-07T06:45:14;27.60;42.90
50067;DHT22;35952;52.524;13.340;2022-08-07T06:47:41;26.80;42.50
50067;DHT22;35952;52.524;13.340;2022-08-07T06:50:07;26.10;46.50
50067;DHT22;35952;52.524;13.340;2022-08-07T06:52:35;26.80;45.00
50067;DHT22;35952;52.524;13.340;2022-08-07T06:55:08;26.10;46.40
50067;DHT22;35952;52.524;13.340;2022-08-07T06:57:36;25.30;45.60
50067;DHT22;35952;52.524;13.340;2022-08-07T07:00:03;24.80;46.70
50067;DHT22;35952;52.524;13.340;2022-08-07T07:02:29;24.20;47.40
50067;DHT22;35952;52.524;13.340;2022-08-07T07:04:56;24.30;47.30
50067;DHT22;35952;52.524;13.340;2022-08-07T07:07:22;24.10;49.00
50067;DHT22;35952;52.524;13.340;2022-08-07T07:09:48;24.10;48.10
50067;DHT22;35952;52.524;13.340;2022-08-07T07:15:06;23.00;49.30
50067;DHT22;35952;52.524;13.340;2022-08-07T07:17:47;23.60;48.50
50067;DHT22;35952;52.524;13.340;2022-08-07T07:20:30;24.10;48.80
50067;DHT22;35952;52.524;13.340;2022-08-07T07:22:57;24.10;49.00
50067;DHT22;35952;52.524;13.340;2022-08-07T07:25:23;23.40;47.90
50067;DHT22;35952;52.524;13.340;2022-08-07T07:27:53;23.40;47.40
50067;DHT22;35952;52.524;13.340;2022-08-07T07:30:24;23.80;48.90
50067;DHT22;35952;52.524;13.340;2022-08-07T07:32:52;23.90;47.20
50067;DHT22;35952;52.524;13.340;2022-08-07T07:35:21;24.80;47.70
50067;DHT22;35952;52.524;13.340;2022-08-07T07:37:48;26.40;47.00
50067;DHT22;35952;52.524;13.340;2022-08-07T07:40:17;27.60;42.40
50067;DHT22;35952;52.524;13.340;2022-08-07T07:42:45;29.00;40.10
50067;DHT22;35952;52.524;13.340;2022-08-07T07:45:13;29.40;38.90
50067;DHT22;35952;52.524;13.340;2022-08-07T07:47:42;28.40;39.70
50067;DHT22;35952;52.524;13.340;2022-08-07T07:50:10;29.40;40.60
50067;DHT22;35952;52.524;13.340;2022-08-07T07:52:38;27.80;39.70
50067;DHT22;35952;52.524;13.340;2022-08-07T07:55:06;26.60;41.50
50067;DHT22;35952;52.524;13.340;2022-08-07T07:57:33;26.30;44.90
50067;DHT22;35952;52.524;13.340;2022-08-07T08:00:00;26.10;43.10
50067;DHT22;35952;52.524;13.340;2022-08-07T08:02:28;25.70;43.90
50067;DHT22;35952;52.524;13.340;2022-08-07T08:04:55;26.50;42.60
50067;DHT22;35952;52.524;13.340;2022-08-07T08:07:22;26.60;42.50
50067;DHT22;35952;52.524;13.340;2022-08-07T08:09:49;26.80;44.00
50067;DHT22;35952;52.524;13.340;2022-08-07T08:12:17;26.90;42.10
50067;DHT22;35952;52.524;13.340;2022-08-07T08:14:42;26.10;42.80
50067;DHT22;35952;52.524;13.340;2022-08-07T08:17:09;25.50;43.30
50067;DHT22;35952;52.524;13.340;2022-08-07T08:19:38;25.30;45.50
50067;DHT22;35952;52.524;13.340;2022-08-07T08:22:06;25.80;43.50
50067;DHT22;35952;52.524;13.340;2022-08-07T08:24:53;24.80;44.30
50067;DHT22;35952;52.524;13.340;2022-08-07T08:27:39;24.70;44.40
50067;DHT22;35952;52.524;13.340;2022-08-07T08:30:08;23.70;46.20
50067;DHT22;35952;52.524;13.340;2022-08-07T08:32:43;24.20;46.40
50067;DHT22;35952;52.524;13.340;2022-08-07T08:35:14;24.10;45.40
50067;DHT22;35952;52.524;13.340;2022-08-07T08:37:42;24.50;46.70
50067;DHT22;35952;52.524;13.340;2022-08-07T08:40:13;23.90;46.30
50067;DHT22;35952;52.524;13.340;2022-08-07T08:42:44;24.30;45.20
50067;DHT22;35952;52.524;13.340;2022-08-07T08:45:31;24.40;45.30
50067;DHT22;35952;52.524;13.340;2022-08-07T08:48:29;24.50;45.70
50067;DHT22;35952;52.524;13.340;2022-08-07T08:51:06;24.50;45.20
50067;DHT22;35952;52.524;13.340;2022-08-07T08:56:22;24.90;45.40
50067;DHT22;35952;52.524;13.340;2022-08-07T08:59:13;24.60;46.00
50067;DHT22;35952;52.524;13.340;2022-08-07T09:01:45;24.20;45.30
50067;DHT22;35952;52.524;13.340;2022-08-07T09:07:51;24.00;45.60
50067;DHT22;35952;52.524;13.340;2022-08-07T09:10:31;23.90;45.30
50067;DHT22;35952;52.524;13.340;2022-08-07T09:13:34;23.70;46.70
50067;DHT22;35952;52.524;13.340;2022-08-07T09:19:11;24.10;45.40
50067;DHT22;35952;52.524;13.340;2022-08-07T09:24:44;24.20;45.50
50067;DHT22;35952;52.524;13.340;2022-08-07T09:30:03;23.00;46.90
50067;DHT22;35952;52.524;13.340;2022-08-07T09:32:49;23.30;47.10
50067;DHT22;35952;52.524;13.340;2022-08-07T09:40:39;24.10;45.10
50067;DHT22;35952;52.524;13.340;2022-08-07T09:45:47;24.10;46.00
50067;DHT22;35952;52.524;13.340;2022-08-07T09:53:38;24.80;44.60
50067;DHT22;35952;52.524;13.340;2022-08-07T10:01:57;24.40;43.00
50067;DHT22;35952;52.524;13.340;2022-08-07T10:04:51;24.40;43.60
50067;DHT22;35952;52.524;13.340;2022-08-07T10:07:39;24.60;43.20
50067;DHT22;35952;52.524;13.340;2022-08-07T10:10:32;25.30;43.30
50067;DHT22;35952;52.524;13.340;2022-08-07T10:18:35;24.70;46.10
50067;DHT22;35952;52.524;13.340;2022-08-07T10:21:23;24.60;44.60
50067;DHT22;35952;52.524;13.340;2022-08-07T10:27:02;24.60;43.10
50067;DHT22;35952;52.524;13.340;2022-08-07T10:29:57;24.20;43.70
50067;DHT22;35952;52.524;13.340;2022-08-07T10:44:17;26.80;41.30
50067;DHT22;35952;52.524;13.340;2022-08-07T10:46:53;26.50;40.60
50067;DHT22;35952;52.524;13.340;2022-08-07T10:49:39;26.30;41.90
50067;DHT22;35952;52.524;13.340;2022-08-07T10:52:14;25.90;43.10
50067;DHT22;35952;52.524;13.340;2022-08-07T10:54:49;25.40;42.70
50067;DHT22;35952;52.524;13.340;2022-08-07T11:00:10;24.70;43.50
50067;DHT22;35952;52.524;13.340;2022-08-07T11:02:45;24.40;45.80
50067;DHT22;35952;52.524;13.340;2022-08-07T11:11:14;24.70;46.00
50067;DHT22;35952;52.524;13.340;2022-08-07T11:13:55;25.20;43.60
50067;DHT22;35952;52.524;13.340;2022-08-07T11:16:28;24.70;43.20
50067;DHT22;35952;52.524;13.340;2022-08-07T11:19:13;25.10;46.20
50067;DHT22;35952;52.524;13.340;2022-08-07T11:22:04;25.70;43.70
50067;DHT22;35952;52.524;13.340;2022-08-07T11:24:59;26.10;41.90
50067;DHT22;35952;52.524;13.340;2022-08-07T11:27:37;26.70;40.60
50067;DHT22;35952;52.524;13.340;2022-08-07T11:30:05;26.80;40.20
50067;DHT22;35952;52.524;13.340;2022-08-07T11:35:07;26.70;40.40
50067;DHT22;35952;52.524;13.340;2022-08-07T11:37:55;27.20;39.60
50067;DHT22;35952;52.524;13.340;2022-08-07T11:40:58;27.50;39.10
50067;DHT22;35952;52.524;13.340;2022-08-07T11:43:31;26.90;39.20
50067;DHT22;35952;52.524;13.340;2022-08-07T11:46:21;26.70;39.90
50067;DHT22;35952;52.524;13.340;2022-08-07T11:57:40;27.00;41.10
50067;DHT22;35952;52.524;13.340;2022-08-07T12:00:19;27.50;39.30
50067;DHT22;35952;52.524;13.340;2022-08-07T12:03:19;27.30;40.20
50067;DHT22;35952;52.524;13.340;2022-08-07T12:08:46;27.30;38.40
50067;DHT22;35952;52.524;13.340;2022-08-07T12:11:25;26.40;39.50
50067;DHT22;35952;52.524;13.340;2022-08-07T12:14:06;26.50;39.60
50067;DHT22;35952;52.524;13.340;2022-08-07T12:17:13;25.90;40.80
50067;DHT22;35952;52.524;13.340;2022-08-07T12:19:54;25.60;40.80
50067;DHT22;35952;52.524;13.340;2022-08-07T12:22:46;25.60;41.20
50067;DHT22;35952;52.524;13.340;2022-08-07T12:25:28;25.60;40.80
50067;DHT22;35952;52.524;13.340;2022-08-07T12:28:22;25.40;40.40
50067;DHT22;35952;52.524;13.340;2022-08-07T12:30:52;25.00;41.30
50067;DHT22;35952;52.524;13.340;2022-08-07T12:33:24;24.80;41.90
50067;DHT22;35952;52.524;13.340;2022-08-07T12:35:51;24.90;42.20
50067;DHT22;35952;52.524;13.340;2022-08-07T12:38:20;25.10;41.60
50067;DHT22;35952;52.524;13.340;2022-08-07T12:40:49;25.40;41.40
50067;DHT22;35952;52.524;13.340;2022-08-07T12:43:18;25.60;42.00
50067;DHT22;35952;52.524;13.340;2022-08-07T12:48:56;26.00;40.40
50067;DHT22;35952;52.524;13.340;2022-08-07T12:51:31;25.20;40.60
50067;DHT22;35952;52.524;13.340;2022-08-07T12:54:10;25.40;42.00
50067;DHT22;35952;52.524;13.340;2022-08-07T12:56:44;24.90;41.00
50067;DHT22;35952;52.524;13.340;2022-08-07T12:59:16;25.20;42.20
50067;DHT22;35952;52.524;13.340;2022-08-07T13:02:07;25.30;42.30
50067;DHT22;35952;52.524;13.340;2022-08-07T13:05:04;25.50;42.30
50067;DHT22;35952;52.524;13.340;2022-08-07T13:07:55;25.70;42.10
50067;DHT22;35952;52.524;13.340;2022-08-07T13:11:32;25.80;40.70
50067;DHT22;35952;52.524;13.340;2022-08-07T13:13:54;26.10;41.20
50067;DHT22;35952;52.524;13.340;2022-08-07T13:16:28;26.20;40.30
50067;DHT22;35952;52.524;13.340;2022-08-07T13:19:22;26.20;40.80
50067;DHT22;35952;52.524;13.340;2022-08-07T13:22:28;26.10;40.10
50067;DHT22;35952;52.524;13.340;2022-08-07T13:25:14;26.10;40.00
50067;DHT22;35952;52.524;13.340;2022-08-07T13:27:50;26.50;40.90
50067;DHT22;35952;52.524;13.340;2022-08-07T13:30:17;27.00;39.70
50067;DHT22;35952;52.524;13.340;2022-08-07T13:32:57;27.40;39.50
50067;DHT22;35952;52.524;13.340;2022-08-07T13:35:41;27.50;38.40
50067;DHT22;35952;52.524;13.340;2022-08-07T13:38:23;27.40;38.20
50067;DHT22;35952;52.524;13.340;2022-08-07T13:43:43;27.10;37.40
50067;DHT22;35952;52.524;13.340;2022-08-07T13:46:13;27.00;39.90
50067;DHT22;35952;52.524;13.340;2022-08-07T13:48:47;27.20;38.50
50067;DHT22;35952;52.524;13.340;2022-08-07T13:51:14;27.20;37.80
50067;DHT22;35952;52.524;13.340;2022-08-07T13:53:41;27.20;38.10
50067;DHT22;35952;52.524;13.340;2022-08-07T13:56:11;27.20;37.90
50067;DHT22;35952;52.524;13.340;2022-08-07T13:58:42;27.30;38.80
50067;DHT22;35952;52.524;13.340;2022-08-07T14:01:42;27.20;39.00
50067;DHT22;35952;52.524;13.340;2022-08-07T14:04:14;27.20;39.30
50067;DHT22;35952;52.524;13.340;2022-08-07T14:06:43;27.10;39.40
50067;DHT22;35952;52.524;13.340;2022-08-07T14:11:51;29.60;37.70
50067;DHT22;35952;52.524;13.340;2022-08-07T14:14:20;32.00;35.00
50067;DHT22;35952;52.524;13.340;2022-08-07T14:16:48;34.30;32.30
50067;DHT22;35952;52.524;13.340;2022-08-07T14:19:21;36.10;30.00
50067;DHT22;35952;52.524;13.340;2022-08-07T14:21:49;37.70;28.50
50067;DHT22;35952;52.524;13.340;2022-08-07T14:24:25;38.60;27.00
50067;DHT22;35952;52.524;13.340;2022-08-07T14:26:56;39.40;26.50
50067;DHT22;35952;52.524;13.340;2022-08-07T14:29:26;39.90;25.90
50067;DHT22;35952;52.524;13.340;2022-08-07T14:31:58;40.30;25.30
50067;DHT22;35952;52.524;13.340;2022-08-07T14:34:26;40.30;25.20
50067;DHT22;35952;52.524;13.340;2022-08-07T14:36:52;39.50;24.20
50067;DHT22;35952;52.524;13.340;2022-08-07T14:39:19;36.90;26.80
50067;DHT22;35952;52.524;13.340;2022-08-07T14:41:48;35.10;26.80
50067;DHT22;35952;52.524;13.340;2022-08-07T14:44:16;33.40;28.90
50067;DHT22;35952;52.524;13.340;2022-08-07T14:46:43;32.00;30.10
50067;DHT22;35952;52.524;13.340;2022-08-07T14:49:10;30.80;32.00
50067;DHT22;35952;52.524;13.340;2022-08-07T14:51:37;29.90;31.50
50067;DHT22;35952;52.524;13.340;2022-08-07T14:54:06;28.00;33.40
50067;DHT22;35952;52.524;13.340;2022-08-07T14:56:39;27.70;35.20
50067;DHT22;35952;52.524;13.340;2022-08-07T14:59:07;27.40;35.60
50067;DHT22;35952;52.524;13.340;2022-08-07T15:01:35;27.40;36.60
50067;DHT22;35952;52.524;13.340;2022-08-07T15:04:04;27.30;36.10
50067;DHT22;35952;52.524;13.340;2022-08-07T15:06:37;26.80;36.30
50067;DHT22;35952;52.524;13.340;2022-08-07T15:09:11;26.50;37.00
50067;DHT22;35952;52.524;13.340;2022-08-07T15:11:52;26.10;37.90
50067;DHT22;35952;52.524;13.340;2022-08-07T15:14:21;25.80;38.70
50067;DHT22;35952;52.524;13.340;2022-08-07T15:16:52;25.60;40.00
50067;DHT22;35952;52.524;13.340;2022-08-07T15:19:23;25.40;39.20
50067;DHT22;35952;52.524;13.340;2022-08-07T15:21:52;25.30;38.70
50067;DHT22;35952;52.524;13.340;2022-08-07T15:24:30;25.20;40.00
50067;DHT22;35952;52.524;13.340;2022-08-07T15:27:08;25.10;39.40
50067;DHT22;35952;52.524;13.340;2022-08-07T15:29:38;24.90;40.60
50067;DHT22;35952;52.524;13.340;2022-08-07T15:32:06;24.80;41.30
50067;DHT22;35952;52.524;13.340;2022-08-07T15:34:35;24.90;39.70
50067;DHT22;35952;52.524;13.340;2022-08-07T15:37:03;24.80;40.30
50067;DHT22;35952;52.524;13.340;2022-08-07T15:39:33;24.80;40.30
50067;DHT22;35952;52.524;13.340;2022-08-07T15:42:02;24.70;40.00
50067;DHT22;35952;52.524;13.340;2022-08-07T15:44:29;24.60;41.20
50067;DHT22;35952;52.524;13.340;2022-08-07T15:47:06;24.70;40.90
50067;DHT22;35952;52.524;13.340;2022-08-07T15:49:34;24.70;40.20
50067;DHT22;35952;52.524;13.340;2022-08-07T15:52:01;24.60;40.40
50067;DHT22;35952;52.524;13.340;2022-08-07T15:54:36;24.40;40.70
50067;DHT22;35952;52.524;13.340;2022-08-07T15:57:06;24.50;40.30
50067;DHT22;35952;52.524;13.340;2022-08-07T15:59:34;24.40;40.90
50067;DHT22;35952;52.524;13.340;2022-08-07T16:02:04;24.50;40.40
50067;DHT22;35952;52.524;13.340;2022-08-07T16:04:34;24.40;41.40
50067;DHT22;35952;52.524;13.340;2022-08-07T16:07:03;24.60;40.70
50067;DHT22;35952;52.524;13.340;2022-08-07T16:09:49;24.40;41.00
50067;DHT22;35952;52.524;13.340;2022-08-07T16:12:35;24.40;41.70
50067;DHT22;35952;52.524;13.340;2022-08-07T16:21:00;24.30;41.00
50067;DHT22;35952;52.524;13.340;2022-08-07T16:23:46;24.40;40.30
50067;DHT22;35952;52.524;13.340;2022-08-07T16:34:11;24.30;40.90
50067;DHT22;35952;52.524;13.340;2022-08-07T16:37:03;24.40;41.00
50067;DHT22;35952;52.524;13.340;2022-08-07T16:48:35;24.60;40.60
50067;DHT22;35952;52.524;13.340;2022-08-07T16:54:14;24.50;40.40
50067;DHT22;35952;52.524;13.340;2022-08-07T16:56:54;24.50;40.90
50067;DHT22;35952;52.524;13.340;2022-08-07T17:02:36;24.30;40.00
50067;DHT22;35952;52.524;13.340;2022-08-07T17:05:09;24.10;40.20
50067;DHT22;35952;52.524;13.340;2022-08-07T17:07:46;24.10;42.20
50067;DHT22;35952;52.524;13.340;2022-08-07T17:13:26;24.40;40.40
50067;DHT22;35952;52.524;13.340;2022-08-07T17:16:23;24.40;40.00
50067;DHT22;35952;52.524;13.340;2022-08-07T17:19:00;24.50;40.30
50067;DHT22;35952;52.524;13.340;2022-08-07T17:21:41;24.40;40.60
50067;DHT22;35952;52.524;13.340;2022-08-07T17:24:20;24.40;40.40
50067;DHT22;35952;52.524;13.340;2022-08-07T17:27:15;24.50;40.80
50067;DHT22;35952;52.524;13.340;2022-08-07T17:30:06;24.50;40.80
50067;DHT22;35952;52.524;13.340;2022-08-07T17:35:14;24.50;41.10
50067;DHT22;35952;52.524;13.340;2022-08-07T17:40:44;24.30;41.70
50067;DHT22;35952;52.524;13.340;2022-08-07T17:43:25;24.30;41.50
50067;DHT22;35952;52.524;13.340;2022-08-07T17:45:58;24.20;41.90
50067;DHT22;35952;52.524;13.340;2022-08-07T17:48:42;24.20;41.80
50067;DHT22;35952;52.524;13.340;2022-08-07T17:51:37;24.20;41.70
50067;DHT22;35952;52.524;13.340;2022-08-07T17:54:19;24.10;42.00
50067;DHT22;35952;52.524;13.340;2022-08-07T17:59:51;24.10;41.70